PWSweather.com
Personal Weather Stations
Station Observations
OAK1E
Piedmont Ave District, Oakland, CA 94611

Piedmont Ave DistrictOakland, CA 94611

Lat: 37.832205, Lon: -122.250229

Elevation: 176

Station Type: Davis Vantage Pro 2

http://www.mayacamaswx.com/Oakland1E/Oakland1E.htm

Latest ConditionsUpdated 5:40:00 PM PDT Sunday, Mar 26, 2017
Currently Today's Max Today's Min Today's Average
Temperature 59.2°F15.1°C 62.9°F17.2°C 49.4°F9.7°C 55.0°F12.8°C
Dew Point 50.5°F10.3°C 50.8°F10.4°C 46.3°F7.9°C 48.5°F9.2°C
Winds 1.7 mph SSE2.7 kmh SSE 2.4 mph SSW3.9 kmh SSW - 0.6 mph 1.0 kmh
Wind Gusts 2.9 mph4.7 kmh 11.5 mph18.5 kmh - -
Humidity 73% 92% 61% 80%
Pressure 30.06 in1017.9 mb 30.14 in1020.7 mb 30.06 in1017.9 mb -
Hour Temp Dew Point Humidity Winds Wind Gusts Pressure Precip Precip Rate Daily Precip Total
05:40 PM 59.2°F15.1°C 50.5°F10.3°C 73% 1.7 mph SSE2.7 kmh SSE 2.9 mph4.7 kmh 30.06 in1017.9 mb - 0.00 in0.0 mm 0.00 in0.0 mm
05:30 PM 59.3°F15.2°C 50.3°F10.2°C 72% 0.8 mph SE1.3 kmh SE 1.4 mph2.3 kmh 30.06 in1017.9 mb - 0.00 in0.0 mm 0.00 in0.0 mm
05:20 PM 59.5°F15.3°C 50.1°F10.1°C 71% 1.1 mph ESE1.8 kmh ESE 1.4 mph2.3 kmh 30.06 in1017.9 mb - 0.00 in0.0 mm 0.00 in0.0 mm
05:10 PM 59.8°F15.4°C 50.0°F10.0°C 70% 1.6 mph SW2.6 kmh SW 2.9 mph4.7 kmh 30.07 in1018.3 mb - 0.00 in0.0 mm 0.00 in0.0 mm
05:00 PM 59.7°F15.4°C 50.3°F10.2°C 71% 1.1 mph NNW1.8 kmh NNW 2.9 mph4.7 kmh 30.07 in1018.3 mb - 0.00 in0.0 mm 0.00 in0.0 mm
04:50 PM 59.6°F15.3°C 50.6°F10.3°C 72% 1.1 mph WSW1.8 kmh WSW 1.4 mph2.3 kmh 30.07 in1018.3 mb - 0.00 in0.0 mm 0.00 in0.0 mm
04:40 PM 59.9°F15.5°C 50.1°F10.1°C 70% 1.2 mph SW1.9 kmh SW 1.4 mph2.3 kmh 30.08 in1018.6 mb - 0.00 in0.0 mm 0.00 in0.0 mm
04:30 PM 60.4°F15.8°C 49.8°F9.9°C 68% 1.0 mph W1.6 kmh W 2.9 mph4.7 kmh 30.08 in1018.6 mb - 0.00 in0.0 mm 0.00 in0.0 mm
04:20 PM 60.4°F15.8°C 50.2°F10.1°C 69% 1.2 mph WNW1.9 kmh WNW 2.9 mph4.7 kmh 30.08 in1018.6 mb - 0.00 in0.0 mm 0.00 in0.0 mm
04:10 PM 60.3°F15.7°C 49.3°F9.6°C 67% 1.7 mph SSE2.7 kmh SSE 2.9 mph4.7 kmh 30.09 in1019.0 mb - 0.00 in0.0 mm 0.00 in0.0 mm
04:00 PM 60.7°F15.9°C 49.3°F9.6°C 66% 2.1 mph SW3.4 kmh SW 4.3 mph6.9 kmh 30.09 in1019.0 mb - 0.00 in0.0 mm 0.00 in0.0 mm
03:50 PM 61.4°F16.3°C 49.1°F9.5°C 64% 1.5 mph SW2.4 kmh SW 2.9 mph4.7 kmh 30.09 in1019.0 mb - 0.00 in0.0 mm 0.00 in0.0 mm
03:40 PM 61.9°F16.6°C 49.2°F9.6°C 63% 1.8 mph NW2.9 kmh NW 2.9 mph4.7 kmh 30.09 in1019.0 mb - 0.00 in0.0 mm 0.00 in0.0 mm
03:30 PM 62.2°F16.8°C 49.0°F9.4°C 62% 1.8 mph WSW2.9 kmh WSW 2.9 mph4.7 kmh 30.09 in1019.0 mb - 0.00 in0.0 mm 0.00 in0.0 mm
03:20 PM 62.6°F17.0°C 48.9°F9.4°C 61% 1.4 mph WSW2.3 kmh WSW 2.9 mph4.7 kmh 30.09 in1019.0 mb - 0.00 in0.0 mm 0.00 in0.0 mm
03:10 PM 62.5°F16.9°C 48.9°F9.4°C 61% 1.3 mph SE2.1 kmh SE 2.9 mph4.7 kmh 30.09 in1019.0 mb - 0.00 in0.0 mm 0.00 in0.0 mm
03:00 PM 62.5°F16.9°C 48.9°F9.4°C 61% 1.7 mph SSW2.7 kmh SSW 2.9 mph4.7 kmh 30.10 in1019.3 mb - 0.00 in0.0 mm 0.00 in0.0 mm
02:50 PM 62.9°F17.2°C 49.7°F9.8°C 62% 1.9 mph SW3.1 kmh SW 11.5 mph18.5 kmh 30.10 in1019.3 mb - 0.00 in0.0 mm 0.00 in0.0 mm
02:40 PM 62.5°F16.9°C 49.3°F9.6°C 62% 1.8 mph SW2.9 kmh SW 2.9 mph4.7 kmh 30.11 in1019.6 mb - 0.00 in0.0 mm 0.00 in0.0 mm
02:30 PM 62.7°F17.1°C 49.1°F9.5°C 61% 2.0 mph SW3.2 kmh SW 4.3 mph6.9 kmh 30.11 in1019.6 mb - 0.00 in0.0 mm 0.00 in0.0 mm
02:20 PM 62.5°F16.9°C 48.9°F9.4°C 61% 2.4 mph WSW3.9 kmh WSW 2.9 mph4.7 kmh 30.11 in1019.6 mb - 0.00 in0.0 mm 0.00 in0.0 mm
02:10 PM 62.2°F16.8°C 49.1°F9.5°C 62% 1.2 mph N1.9 kmh N 2.9 mph4.7 kmh 30.11 in1019.6 mb - 0.00 in0.0 mm 0.00 in0.0 mm
02:00 PM 62.1°F16.7°C 48.9°F9.4°C 62% 1.0 mph W1.6 kmh W 2.9 mph4.7 kmh 30.12 in1020.0 mb - 0.00 in0.0 mm 0.00 in0.0 mm
01:50 PM 61.5°F16.4°C 48.7°F9.3°C 63% 1.1 mph NNE1.8 kmh NNE 2.9 mph4.7 kmh 30.12 in1020.0 mb - 0.00 in0.0 mm 0.00 in0.0 mm
01:40 PM 61.5°F16.4°C 47.9°F8.8°C 61% 0.5 mph SW0.8 kmh SW 1.4 mph2.3 kmh 30.13 in1020.3 mb - 0.00 in0.0 mm 0.00 in0.0 mm
01:30 PM 61.8°F16.6°C 48.2°F9.0°C 61% 1.4 mph SW2.3 kmh SW 2.9 mph4.7 kmh 30.13 in1020.3 mb - 0.00 in0.0 mm 0.00 in0.0 mm
01:20 PM 61.9°F16.6°C 48.7°F9.3°C 62% 1.5 mph WSW2.4 kmh WSW 2.9 mph4.7 kmh 30.13 in1020.3 mb - 0.00 in0.0 mm 0.00 in0.0 mm
01:10 PM 61.8°F16.6°C 48.6°F9.2°C 62% 0.8 mph WSW1.3 kmh WSW 1.4 mph2.3 kmh 30.13 in1020.3 mb - 0.00 in0.0 mm 0.00 in0.0 mm
01:00 PM 61.0°F16.1°C 49.5°F9.7°C 66% 0.4 mph WSW0.6 kmh WSW 2.9 mph4.7 kmh 30.13 in1020.3 mb - 0.00 in0.0 mm 0.00 in0.0 mm
12:50 PM 60.5°F15.8°C 47.8°F8.8°C 63% 1.4 mph WSW2.3 kmh WSW 2.9 mph4.7 kmh 30.14 in1020.7 mb - 0.00 in0.0 mm 0.00 in0.0 mm
12:40 PM 60.6°F15.9°C 47.5°F8.6°C 62% 1.2 mph W1.9 kmh W 2.9 mph4.7 kmh 30.13 in1020.3 mb - 0.00 in0.0 mm 0.00 in0.0 mm
12:30 PM 60.5°F15.8°C 49.1°F9.5°C 66% 1.2 mph WSW1.9 kmh WSW 1.4 mph2.3 kmh 30.13 in1020.3 mb - 0.00 in0.0 mm 0.00 in0.0 mm
12:20 PM 60.1°F15.6°C 49.1°F9.5°C 67% 1.2 mph W1.9 kmh W 2.9 mph4.7 kmh 30.13 in1020.3 mb - 0.00 in0.0 mm 0.00 in0.0 mm
12:10 PM 60.3°F15.7°C 48.9°F9.4°C 66% 1.9 mph WSW3.1 kmh WSW 2.9 mph4.7 kmh 30.13 in1020.3 mb - 0.00 in0.0 mm 0.00 in0.0 mm
12:00 PM 60.5°F15.8°C 49.1°F9.5°C 66% 2.4 mph SSW3.9 kmh SSW 2.9 mph4.7 kmh 30.14 in1020.7 mb - 0.00 in0.0 mm 0.00 in0.0 mm
11:50 AM 60.0°F15.6°C 50.2°F10.1°C 70% 1.0 mph W1.6 kmh W 1.4 mph2.3 kmh 30.14 in1020.7 mb - 0.00 in0.0 mm 0.00 in0.0 mm
11:40 AM 59.6°F15.3°C 50.2°F10.1°C 71% 1.6 mph W2.6 kmh W 4.3 mph6.9 kmh 30.14 in1020.7 mb - 0.00 in0.0 mm 0.00 in0.0 mm
11:30 AM 59.1°F15.1°C 50.1°F10.1°C 72% 1.0 mph NW1.6 kmh NW 1.4 mph2.3 kmh 30.14 in1020.7 mb - 0.00 in0.0 mm 0.00 in0.0 mm
11:20 AM 58.3°F14.6°C 49.7°F9.8°C 73% 1.2 mph WSW1.9 kmh WSW 2.9 mph4.7 kmh 30.14 in1020.7 mb - 0.00 in0.0 mm 0.00 in0.0 mm
11:10 AM 58.0°F14.4°C 48.6°F9.2°C 71% 0.5 mph NW0.8 kmh NW 2.9 mph4.7 kmh 30.14 in1020.7 mb - 0.00 in0.0 mm 0.00 in0.0 mm
11:00 AM 57.9°F14.4°C 50.8°F10.4°C 77% 1.4 mph WNW2.3 kmh WNW 2.9 mph4.7 kmh 30.14 in1020.7 mb - 0.00 in0.0 mm 0.00 in0.0 mm
10:50 AM 57.2°F14.0°C 50.1°F10.1°C 77% 0.6 mph W1.0 kmh W 1.4 mph2.3 kmh 30.14 in1020.7 mb - 0.00 in0.0 mm 0.00 in0.0 mm
10:40 AM 56.8°F13.8°C 50.4°F10.2°C 79% 0.3 mph W0.5 kmh W 1.4 mph2.3 kmh 30.14 in1020.7 mb - 0.00 in0.0 mm 0.00 in0.0 mm
10:30 AM 56.3°F13.5°C 49.9°F9.9°C 79% 0.7 mph W1.1 kmh W 2.9 mph4.7 kmh 30.14 in1020.7 mb - 0.00 in0.0 mm 0.00 in0.0 mm
10:20 AM 55.7°F13.2°C 50.3°F10.2°C 82% 0.5 mph WSW0.8 kmh WSW 1.4 mph2.3 kmh 30.14 in1020.7 mb - 0.00 in0.0 mm 0.00 in0.0 mm
10:10 AM 55.4°F13.0°C 50.3°F10.2°C 83% 0.4 mph WSW0.6 kmh WSW 1.4 mph2.3 kmh 30.14 in1020.7 mb - 0.00 in0.0 mm 0.00 in0.0 mm
10:00 AM 55.1°F12.8°C 49.0°F9.4°C 80% 0.4 mph SW0.6 kmh SW 1.4 mph2.3 kmh 30.14 in1020.7 mb - 0.00 in0.0 mm 0.00 in0.0 mm
09:50 AM 54.9°F12.7°C 49.8°F9.9°C 83% 0.5 mph SSW0.8 kmh SSW 1.4 mph2.3 kmh 30.13 in1020.3 mb - 0.00 in0.0 mm 0.00 in0.0 mm
09:40 AM 54.4°F12.4°C 49.4°F9.7°C 83% 0.1 mph SSW0.2 kmh SSW 1.4 mph2.3 kmh 30.13 in1020.3 mb - 0.00 in0.0 mm 0.00 in0.0 mm
09:30 AM 54.1°F12.3°C 49.1°F9.5°C 83% 0.4 mph SSW0.6 kmh SSW 2.9 mph4.7 kmh 30.13 in1020.3 mb - 0.00 in0.0 mm 0.00 in0.0 mm
09:20 AM 54.0°F12.2°C 49.6°F9.8°C 85% 0.2 mph S0.3 kmh S 1.4 mph2.3 kmh 30.13 in1020.3 mb - 0.00 in0.0 mm 0.00 in0.0 mm
09:10 AM 53.6°F12.0°C 49.2°F9.6°C 85% 0.4 mph S0.6 kmh S 1.4 mph2.3 kmh 30.13 in1020.3 mb - 0.00 in0.0 mm 0.00 in0.0 mm
09:00 AM 53.1°F11.7°C 49.3°F9.6°C 87% 0.1 mph S0.2 kmh S -- 30.13 in1020.3 mb - 0.00 in0.0 mm 0.00 in0.0 mm
08:50 AM 52.7°F11.5°C 48.9°F9.4°C 87% 0.3 mph SSW0.5 kmh SSW 1.4 mph2.3 kmh 30.13 in1020.3 mb - 0.00 in0.0 mm 0.00 in0.0 mm
08:40 AM 52.4°F11.3°C 49.2°F9.6°C 89% 0.3 mph SE0.5 kmh SE 1.4 mph2.3 kmh 30.12 in1020.0 mb - 0.00 in0.0 mm 0.00 in0.0 mm
08:30 AM 52.1°F11.2°C 49.6°F9.8°C 91% Calm Calm -- 30.12 in1020.0 mb - 0.00 in0.0 mm 0.00 in0.0 mm
08:20 AM 51.9°F11.1°C 49.4°F9.7°C 91% Calm Calm 1.4 mph2.3 kmh 30.11 in1019.6 mb - 0.00 in0.0 mm 0.00 in0.0 mm
08:10 AM 51.8°F11.0°C 49.3°F9.6°C 91% 0.2 mph SE0.3 kmh SE 1.4 mph2.3 kmh 30.11 in1019.6 mb - 0.00 in0.0 mm 0.00 in0.0 mm
08:00 AM 51.7°F10.9°C 49.5°F9.7°C 92% Calm Calm -- 30.10 in1019.3 mb - 0.00 in0.0 mm 0.00 in0.0 mm
07:50 AM 51.6°F10.9°C 48.8°F9.3°C 90% Calm Calm -- 30.10 in1019.3 mb - 0.00 in0.0 mm 0.00 in0.0 mm
07:40 AM 51.5°F10.8°C 48.7°F9.3°C 90% Calm Calm -- 30.10 in1019.3 mb - 0.00 in0.0 mm 0.00 in0.0 mm
07:30 AM 51.5°F10.8°C 48.0°F8.9°C 88% Calm Calm -- 30.11 in1019.6 mb - 0.00 in0.0 mm 0.00 in0.0 mm
07:20 AM 51.4°F10.8°C 48.0°F8.9°C 88% Calm Calm -- 30.11 in1019.6 mb - 0.00 in0.0 mm 0.00 in0.0 mm
07:10 AM 51.3°F10.7°C 47.9°F8.8°C 88% Calm Calm -- 30.11 in1019.6 mb - 0.00 in0.0 mm 0.00 in0.0 mm
07:00 AM 51.2°F10.7°C 47.8°F8.8°C 88% Calm Calm -- 30.11 in1019.6 mb - 0.00 in0.0 mm 0.00 in0.0 mm
06:50 AM 51.1°F10.6°C 48.0°F8.9°C 89% 0.1 mph SE0.2 kmh SE 1.4 mph2.3 kmh 30.11 in1019.6 mb - 0.00 in0.0 mm 0.00 in0.0 mm
06:40 AM 51.0°F10.6°C 47.9°F8.8°C 89% Calm Calm 1.4 mph2.3 kmh 30.11 in1019.6 mb - 0.00 in0.0 mm 0.00 in0.0 mm
06:30 AM 50.8°F10.4°C 47.7°F8.7°C 89% 0.2 mph SE0.3 kmh SE 1.4 mph2.3 kmh 30.10 in1019.3 mb - 0.00 in0.0 mm 0.00 in0.0 mm
06:20 AM 50.6°F10.3°C 47.8°F8.8°C 90% Calm Calm -- 30.10 in1019.3 mb - 0.00 in0.0 mm 0.00 in0.0 mm
06:10 AM 50.6°F10.3°C 47.7°F8.7°C 90% Calm Calm -- 30.10 in1019.3 mb - 0.00 in0.0 mm 0.00 in0.0 mm
06:00 AM 50.4°F10.2°C 47.6°F8.7°C 90% Calm Calm -- 30.10 in1019.3 mb - 0.00 in0.0 mm 0.00 in0.0 mm
05:50 AM 50.3°F10.2°C 47.8°F8.8°C 91% Calm Calm -- 30.10 in1019.3 mb - 0.00 in0.0 mm 0.00 in0.0 mm
05:40 AM 50.1°F10.1°C 47.6°F8.7°C 91% Calm Calm -- 30.09 in1019.0 mb - 0.00 in0.0 mm 0.00 in0.0 mm
05:30 AM 50.0°F10.0°C 47.5°F8.6°C 91% Calm Calm -- 30.09 in1019.0 mb - 0.00 in0.0 mm 0.00 in0.0 mm
05:20 AM 49.9°F9.9°C 47.7°F8.7°C 92% Calm Calm -- 30.09 in1019.0 mb - 0.00 in0.0 mm 0.00 in0.0 mm
05:10 AM 49.8°F9.9°C 47.6°F8.7°C 92% Calm Calm -- 30.09 in1019.0 mb - 0.00 in0.0 mm 0.00 in0.0 mm
05:00 AM 49.8°F9.9°C 47.5°F8.6°C 92% Calm Calm -- 30.09 in1019.0 mb - 0.00 in0.0 mm 0.00 in0.0 mm
04:50 AM 49.7°F9.8°C 47.5°F8.6°C 92% Calm Calm -- 30.09 in1019.0 mb - 0.00 in0.0 mm 0.00 in0.0 mm
04:40 AM 49.8°F9.9°C 47.3°F8.5°C 91% Calm Calm -- 30.09 in1019.0 mb - 0.00 in0.0 mm 0.00 in0.0 mm
04:30 AM 49.9°F9.9°C 47.4°F8.6°C 91% Calm Calm -- 30.09 in1019.0 mb - 0.00 in0.0 mm 0.00 in0.0 mm
04:20 AM 50.0°F10.0°C 47.4°F8.6°C 91% Calm Calm -- 30.10 in1019.3 mb - 0.00 in0.0 mm 0.00 in0.0 mm
04:10 AM 50.0°F10.0°C 47.2°F8.4°C 90% Calm Calm -- 30.10 in1019.3 mb - 0.00 in0.0 mm 0.00 in0.0 mm
04:00 AM 50.1°F10.1°C 47.3°F8.5°C 90% Calm Calm -- 30.10 in1019.3 mb - 0.00 in0.0 mm 0.00 in0.0 mm
03:50 AM 50.3°F10.2°C 47.2°F8.4°C 89% Calm Calm -- 30.10 in1019.3 mb - 0.00 in0.0 mm 0.00 in0.0 mm
03:40 AM 50.5°F10.3°C 47.4°F8.6°C 89% Calm Calm -- 30.10 in1019.3 mb - 0.00 in0.0 mm 0.00 in0.0 mm
03:30 AM 50.6°F10.3°C 47.5°F8.6°C 89% Calm Calm -- 30.11 in1019.6 mb - 0.00 in0.0 mm 0.00 in0.0 mm
03:20 AM 50.4°F10.2°C 47.3°F8.5°C 89% 0.7 mph SE1.1 kmh SE 1.4 mph2.3 kmh 30.11 in1019.6 mb - 0.00 in0.0 mm 0.00 in0.0 mm
03:10 AM 50.3°F10.2°C 47.5°F8.6°C 90% Calm Calm 1.4 mph2.3 kmh 30.11 in1019.6 mb - 0.00 in0.0 mm 0.00 in0.0 mm
03:00 AM 50.2°F10.1°C 47.4°F8.6°C 90% 0.3 mph SE0.5 kmh SE 1.4 mph2.3 kmh 30.12 in1020.0 mb - 0.00 in0.0 mm 0.00 in0.0 mm
02:50 AM 50.0°F10.0°C 47.5°F8.6°C 91% 0.1 mph SE0.2 kmh SE 1.4 mph2.3 kmh 30.12 in1020.0 mb - 0.00 in0.0 mm 0.00 in0.0 mm
02:40 AM 49.9°F9.9°C 47.4°F8.6°C 91% Calm Calm -- 30.13 in1020.3 mb - 0.00 in0.0 mm 0.00 in0.0 mm
02:30 AM 49.7°F9.8°C 46.9°F8.3°C 90% Calm Calm -- 30.12 in1020.0 mb - 0.00 in0.0 mm 0.00 in0.0 mm
02:20 AM 49.5°F9.7°C 46.7°F8.2°C 90% Calm Calm 1.4 mph2.3 kmh 30.13 in1020.3 mb - 0.00 in0.0 mm 0.00 in0.0 mm
02:10 AM 49.4°F9.7°C 46.6°F8.1°C 90% Calm Calm -- 30.12 in1020.0 mb - 0.00 in0.0 mm 0.00 in0.0 mm
02:00 AM 49.5°F9.7°C 46.7°F8.2°C 90% Calm Calm -- 30.13 in1020.3 mb - 0.00 in0.0 mm 0.00 in0.0 mm
01:50 AM 49.4°F9.7°C 46.3°F7.9°C 89% Calm Calm -- 30.13 in1020.3 mb - 0.00 in0.0 mm 0.00 in0.0 mm
01:40 AM 49.5°F9.7°C 46.4°F8.0°C 89% Calm Calm -- 30.13 in1020.3 mb - 0.00 in0.0 mm 0.00 in0.0 mm
01:30 AM 49.7°F9.8°C 46.3°F7.9°C 88% Calm Calm -- 30.13 in1020.3 mb - 0.00 in0.0 mm 0.00 in0.0 mm
01:20 AM 50.0°F10.0°C 46.3°F7.9°C 87% Calm Calm -- 30.13 in1020.3 mb - 0.00 in0.0 mm 0.00 in0.0 mm
01:10 AM 50.3°F10.2°C 46.6°F8.1°C 87% Calm Calm -- 30.13 in1020.3 mb - 0.00 in0.0 mm 0.00 in0.0 mm
01:00 AM 50.6°F10.3°C 46.6°F8.1°C 86% Calm Calm -- 30.13 in1020.3 mb - 0.00 in0.0 mm 0.00 in0.0 mm
12:50 AM 50.8°F10.4°C 46.5°F8.1°C 85% Calm Calm 1.4 mph2.3 kmh 30.14 in1020.7 mb - 0.00 in0.0 mm 0.00 in0.0 mm
12:40 AM 50.9°F10.5°C 46.6°F8.1°C 85% 0.5 mph SW0.8 kmh SW 2.9 mph4.7 kmh 30.14 in1020.7 mb - 0.00 in0.0 mm 0.00 in0.0 mm
12:30 AM 51.0°F10.6°C 47.0°F8.3°C 86% 0.6 mph SW1.0 kmh SW 1.4 mph2.3 kmh 30.14 in1020.7 mb - 0.00 in0.0 mm 0.00 in0.0 mm
12:20 AM 51.0°F10.6°C 46.9°F8.3°C 86% 0.7 mph SSW1.1 kmh SSW 1.4 mph2.3 kmh 30.14 in1020.7 mb - 0.00 in0.0 mm 0.00 in0.0 mm
12:10 AM 50.7°F10.4°C 47.0°F8.3°C 87% 0.7 mph SW1.1 kmh SW 1.4 mph2.3 kmh 30.14 in1020.7 mb - 0.00 in0.0 mm 0.00 in0.0 mm
12:00 AM 50.4°F10.2°C 47.0°F8.3°C 88% 1.9 mph NW3.1 kmh NW 5.8 mph9.3 kmh 30.14 in1020.7 mb - 0.00 in0.0 mm 0.00 in0.0 mm